Time;durP1;ratioP1;P1;durP2;ratioP2;P2;SDS_P1;SDS_P2;PMS_P1;PMS_P2;Temp;Humidity;BMP_temperature;BMP_pressure;BME280_temperature;BME280_humidity;BME280_pressure;Samples;Min_cycle;Max_cycle;Signal;HPM_P1;HPM_P2
2022/04/22 00:00:38;;;;;;;22.80;14.78;;;;;;;2.85;66.52;97304.83;1719773;83;21094;-86
2022/04/22 00:03:08;;;;;;;23.30;14.68;;;;;;;2.79;66.97;97297.92;1719991;83;21103;-85
2022/04/22 00:05:35;;;;;;;22.82;14.35;;;;;;;2.74;66.56;97297.95;1719707;83;21066;-85
2022/04/22 00:08:03;;;;;;;21.05;14.23;;;;;;;2.72;66.98;97296.23;1672745;84;21071;-85
2022/04/22 00:10:29;;;;;;;25.15;15.03;;;;;;;2.71;66.17;97303.23;1719290;83;21028;-85
2022/04/22 00:12:56;;;;;;;23.52;15.63;;;;;;;2.68;65.93;97298.45;1714820;83;21047;-83
2022/04/22 00:15:23;;;;;;;21.33;14.68;;;;;;;2.67;65.79;97300.22;1701578;83;21036;-85
2022/04/22 00:17:50;;;;;;;21.10;14.53;;;;;;;2.67;67.27;97295.41;1701592;83;21000;-85
2022/04/22 00:20:18;;;;;;;23.40;14.75;;;;;;;2.63;66.59;97298.05;1701395;84;21123;-85
2022/04/22 00:22:45;;;;;;;20.52;13.75;;;;;;;2.58;66.92;97295.91;1701258;84;21058;-83
2022/04/22 00:25:14;;;;;;;23.22;14.65;;;;;;;2.52;68.30;97296.44;1720549;83;22079;-84
2022/04/22 00:27:41;;;;;;;22.70;15.05;;;;;;;2.49;66.52;97293.41;1699816;84;21413;-83
2022/04/22 00:30:12;;;;;;;21.42;15.13;;;;;;;2.46;66.84;97294.27;1720424;83;21012;-84
2022/04/22 00:32:39;;;;;;;25.17;14.87;;;;;;;2.43;66.94;97292.12;1655029;85;21039;-83
2022/04/22 00:35:09;;;;;;;22.40;14.30;;;;;;;2.38;67.10;97296.95;1689670;85;21063;-88
2022/04/22 00:37:36;;;;;;;20.43;14.70;;;;;;;2.35;67.21;97289.58;1709823;82;21012;-86
2022/04/22 00:40:04;;;;;;;23.85;14.68;;;;;;;2.37;67.58;97291.30;1718739;83;21055;-84
2022/04/22 00:42:31;;;;;;;22.32;14.15;;;;;;;2.37;66.76;97291.75;1719466;82;21396;-79
2022/04/22 00:44:58;;;;;;;21.52;14.45;;;;;;;2.32;68.83;97292.23;1716946;83;20955;-80
2022/04/22 00:47:25;;;;;;;24.70;14.53;;;;;;;2.33;68.00;97286.12;1704133;84;21012;-79
2022/04/22 00:49:52;;;;;;;21.02;13.25;;;;;;;2.30;68.30;97291.36;1705049;84;21475;-79
2022/04/22 00:52:21;;;;;;;20.57;13.98;;;;;;;2.27;68.27;97285.72;1713719;83;20951;-79
2022/04/22 00:54:48;;;;;;;22.55;14.35;;;;;;;2.26;68.55;97278.76;1717979;83;21034;-79
2022/04/22 00:57:18;;;;;;;24.10;14.10;;;;;;;2.24;67.58;97283.11;1720284;83;20991;-85
2022/04/22 00:59:46;;;;;;;22.22;13.93;;;;;;;2.23;67.06;97279.66;1701394;84;21442;-87
2022/04/22 01:02:12;;;;;;;26.10;15.03;;;;;;;2.26;68.65;97277.45;1701879;84;21414;-80
2022/04/22 01:10:10;;;;;;;23.50;14.95;;;;;;;2.26;67.70;97268.30;1690321;85;21358;-86
2022/04/22 01:12:37;;;;;;;25.92;15.00;;;;;;;2.26;67.39;97274.84;1690338;84;21028;-87
2022/04/22 01:15:06;;;;;;;24.72;14.78;;;;;;;2.25;67.01;97263.95;1719777;83;21012;-88
2022/04/22 01:17:33;;;;;;;20.88;14.65;;;;;;;2.19;67.12;97264.86;1719970;83;21011;-88
2022/04/22 01:19:59;;;;;;;23.87;14.58;;;;;;;2.21;66.82;97264.39;1720508;83;21059;-88
2022/04/22 01:22:27;;;;;;;26.15;15.20;;;;;;;2.22;66.89;97255.70;1720474;83;20991;-86
2022/04/22 01:24:59;;;;;;;22.30;14.28;;;;;;;2.22;66.79;97254.39;1710051;83;21004;-87
2022/04/22 01:27:29;;;;;;;27.17;15.75;;;;;;;2.21;66.68;97254.40;1690088;83;21035;-87
2022/04/22 01:30:02;;;;;;;21.95;14.20;;;;;;;2.19;66.83;97250.48;1689958;84;21149;-87
2022/04/22 01:32:29;;;;;;;22.42;14.03;;;;;;;2.18;67.47;97247.45;1690013;85;20979;-88
2022/04/22 01:34:55;;;;;;;20.88;14.55;;;;;;;2.19;67.34;97249.17;1715930;83;21470;-87
2022/04/22 01:37:23;;;;;;;21.62;14.30;;;;;;;2.20;66.98;97251.36;1722288;82;21105;-87
2022/04/22 01:39:50;;;;;;;23.90;14.90;;;;;;;2.20;66.96;97247.44;1705295;84;21037;-87
2022/04/22 01:42:18;;;;;;;22.17;14.23;;;;;;;2.20;67.01;97242.22;1734774;83;21349;-86
2022/04/22 01:44:45;;;;;;;22.35;14.43;;;;;;;2.21;67.07;97242.63;1682289;84;21007;-87
2022/04/22 01:47:12;;;;;;;22.00;14.15;;;;;;;2.20;67.07;97238.29;1703765;84;20999;-87
2022/04/22 01:49:39;;;;;;;23.60;14.35;;;;;;;2.19;67.39;97243.06;1703699;84;21349;-88
2022/04/22 01:52:07;;;;;;;21.55;13.78;;;;;;;2.23;67.29;97240.43;1703678;84;21027;-84
2022/04/22 01:54:34;;;;;;;27.58;14.38;;;;;;;2.24;67.14;97238.66;1733092;82;21442;-85
2022/04/22 01:57:01;;;;;;;21.55;14.28;;;;;;;2.23;67.19;97229.09;1746539;82;21066;-84
2022/04/22 01:59:28;;;;;;;20.60;14.18;;;;;;;2.23;67.12;97228.67;1746564;82;21079;-84
2022/04/22 02:01:54;;;;;;;22.07;14.70;;;;;;;2.20;67.81;97226.06;1746501;82;20995;-84
2022/04/22 02:04:22;;;;;;;24.05;14.73;;;;;;;2.21;68.04;97225.64;1738295;82;21400;-85
2022/04/22 02:06:48;;;;;;;22.40;14.07;;;;;;;2.20;67.55;97218.69;1703091;84;21046;-85
2022/04/22 02:09:15;;;;;;;20.77;13.55;;;;;;;2.20;67.62;97219.53;1733424;83;20991;-87
2022/04/22 02:11:41;;;;;;;21.20;13.93;;;;;;;2.21;67.40;97213.88;1705503;84;21070;-88
2022/04/22 02:14:08;;;;;;;17.55;13.25;;;;;;;2.21;67.70;97203.42;1720054;83;20944;-83
2022/04/22 02:16:35;;;;;;;18.32;12.63;;;;;;;2.20;67.88;97217.38;1703702;84;21052;-83
2022/04/22 02:19:02;;;;;;;18.45;13.30;;;;;;;2.19;68.99;97216.92;1703790;84;21441;-83
2022/04/22 02:21:29;;;;;;;21.80;14.15;;;;;;;2.19;67.92;97215.62;1706632;82;21031;-84
2022/04/22 02:23:56;;;;;;;21.20;13.88;;;;;;;2.18;67.86;97207.36;1747248;82;20985;-86
2022/04/22 02:26:22;;;;;;;21.25;15.05;;;;;;;2.18;67.86;97197.78;1747251;82;21005;-84
2022/04/22 02:28:49;;;;;;;18.45;13.15;;;;;;;2.19;67.81;97193.39;1747463;82;21036;-83
2022/04/22 02:31:15;;;;;;;20.65;13.60;;;;;;;2.18;67.77;97181.21;1739125;82;21093;-84
2022/04/22 02:33:42;;;;;;;23.80;14.75;;;;;;;2.18;67.81;97179.48;1699771;84;21019;-83
2022/04/22 02:36:10;;;;;;;21.42;13.50;;;;;;;2.14;67.81;97176.46;1681783;85;21063;-84
2022/04/22 02:38:38;;;;;;;22.32;13.78;;;;;;;2.18;67.67;97175.98;1698631;84;20993;-84
2022/04/22 02:46:35;;;;;;;21.37;13.83;;;;;;;2.22;67.95;97175.95;1682069;85;21436;-83
2022/04/22 02:49:02;;;;;;;21.73;13.98;;;;;;;2.23;67.66;97175.50;1681850;85;21095;-83
2022/04/22 02:51:29;;;;;;;21.23;14.03;;;;;;;2.19;68.34;97174.67;1703294;84;21084;-83
2022/04/22 02:53:56;;;;;;;24.82;14.05;;;;;;;2.15;69.10;97178.64;1711942;84;21036;-83
2022/04/22 02:56:24;;;;;;;19.85;13.18;;;;;;;2.14;68.71;97173.84;1732570;83;20955;-83
2022/04/22 02:58:51;;;;;;;22.45;13.98;;;;;;;2.14;68.47;97180.37;1711409;84;21058;-83
2022/04/22 03:01:17;;;;;;;20.08;14.00;;;;;;;2.14;69.21;97181.69;1713565;83;21408;-83
2022/04/22 03:03:45;;;;;;;25.70;15.20;;;;;;;2.11;68.91;97198.69;1681406;84;21020;-82
2022/04/22 03:06:12;;;;;;;22.82;15.05;;;;;;;2.09;68.79;97210.50;1701805;84;21039;-82
2022/04/22 03:08:39;;;;;;;31.50;15.55;;;;;;;2.07;69.50;97215.28;1681337;85;21075;-83
2022/04/22 03:11:06;;;;;;;23.38;15.05;;;;;;;2.06;69.26;97217.47;1717440;83;21034;-83
2022/04/22 03:13:33;;;;;;;22.22;14.80;;;;;;;2.05;69.17;97220.55;1711433;84;21019;-83
2022/04/22 03:16:02;;;;;;;20.20;14.47;;;;;;;2.06;68.77;97225.31;1728511;83;21564;-83
2022/04/22 03:18:29;;;;;;;23.57;15.00;;;;;;;2.07;69.02;97204.83;1709909;84;21028;-82
2022/04/22 03:20:57;;;;;;;25.48;15.58;;;;;;;2.13;69.09;97193.03;1715870;83;21473;-83
2022/04/22 03:23:24;;;;;;;19.17;13.68;;;;;;;2.17;69.57;97194.74;1727682;83;21043;-82
2022/04/22 03:25:50;;;;;;;23.83;14.85;;;;;;;2.20;69.37;97178.16;1712018;84;21027;-83
2022/04/22 03:28:17;;;;;;;23.62;15.13;;;;;;;2.22;70.91;97183.80;1731895;83;21015;-83
2022/04/22 03:30:44;;;;;;;18.92;13.65;;;;;;;2.26;70.51;97192.91;1689586;82;20996;-83
2022/04/22 03:33:10;;;;;;;21.55;14.53;;;;;;;2.26;69.70;97200.75;1709816;84;21060;-83
2022/04/22 03:35:37;;;;;;;22.58;14.87;;;;;;;2.30;69.22;97197.23;1709721;84;20981;-84
2022/04/22 03:38:04;;;;;;;23.07;14.40;;;;;;;2.34;69.87;97215.94;1687104;83;21098;-83
2022/04/22 03:40:30;;;;;;;19.20;13.62;;;;;;;2.36;69.01;97212.85;1647078;86;21058;-83
2022/04/22 03:42:57;;;;;;;20.70;14.10;;;;;;;2.37;69.45;97212.00;1653793;87;21042;-83
2022/04/22 03:45:23;;;;;;;19.45;13.75;;;;;;;2.40;69.17;97215.87;1653642;86;21039;-83
2022/04/22 03:47:51;;;;;;;21.77;13.78;;;;;;;2.43;69.46;97221.08;1668792;85;21084;-83
2022/04/22 03:50:18;;;;;;;20.10;14.35;;;;;;;2.47;68.82;97221.48;1693461;85;21063;-84
2022/04/22 03:52:44;;;;;;;24.00;14.47;;;;;;;2.53;68.83;97201.38;1693194;84;20995;-78
2022/04/22 03:55:11;;;;;;;18.55;13.58;;;;;;;2.55;68.94;97195.25;1693541;85;21036;-78
2022/04/22 04:00:23;;;;;;;21.12;14.23;;;;;;;2.67;68.66;97190.76;1697727;84;21036;-77
2022/04/22 04:02:49;;;;;;;21.20;14.98;;;;;;;2.71;68.61;97183.30;1697514;84;21051;-79
2022/04/22 04:05:16;;;;;;;22.35;14.23;;;;;;;2.72;69.43;97185.91;1696951;84;21087;-79
2022/04/22 04:07:43;;;;;;;19.23;12.75;;;;;;;2.78;69.02;97194.11;1697334;84;21080;-79
2022/04/22 04:15:58;;;;;;;19.52;13.62;;;;;;;2.86;68.41;97186.20;1696879;84;21111;-83
2022/04/22 04:18:32;;;;;;;;;;;;;;;2.85;68.88;97181.39;1700871;84;21325;-83
2022/04/22 04:23:46;;;;;;;23.50;14.55;;;;;;;2.96;68.42;97190.87;1697521;84;20981;-83
2022/04/22 04:26:15;;;;;;;23.77;14.50;;;;;;;3.03;68.26;97176.38;1694153;83;21060;-83
2022/04/22 04:28:44;;;;;;;23.65;14.60;;;;;;;3.06;68.27;97185.94;1700638;83;20972;-83
2022/04/22 04:31:11;;;;;;;21.12;14.65;;;;;;;3.08;68.71;97186.80;1700484;83;21021;-83
2022/04/22 04:33:39;;;;;;;23.50;15.05;;;;;;;3.11;68.19;97181.97;1703233;84;21021;-85
2022/04/22 04:36:09;;;;;;;24.10;15.53;;;;;;;3.13;67.96;97177.56;1703254;83;21030;-84
2022/04/22 04:38:38;;;;;;;24.63;15.15;;;;;;;3.15;68.00;97169.23;1714912;82;21540;-84
2022/04/22 04:41:08;;;;;;;23.83;15.55;;;;;;;3.21;67.88;97182.70;1748997;82;21609;-83
2022/04/22 04:43:38;;;;;;;22.30;15.05;;;;;;;3.29;67.69;97188.72;1699244;82;22168;-83
2022/04/22 04:46:06;;;;;;;20.77;14.65;;;;;;;3.40;67.63;97184.19;1681601;85;21039;-83
2022/04/22 04:48:35;;;;;;;22.77;16.37;;;;;;;3.50;67.77;97188.87;1681720;85;21465;-83
2022/04/22 04:51:02;;;;;;;23.83;15.08;;;;;;;3.56;67.49;97157.33;1703902;82;20993;-84
2022/04/22 04:53:29;;;;;;;25.45;15.80;;;;;;;3.65;67.71;97159.39;1719315;83;20949;-85
2022/04/22 04:55:55;;;;;;;29.52;16.62;;;;;;;3.74;67.51;97146.59;1747655;82;20996;-85
2022/04/22 04:58:22;;;;;;;22.77;14.65;;;;;;;3.80;67.46;97155.66;1728133;82;21006;-85
2022/04/22 05:00:49;;;;;;;22.07;14.50;;;;;;;3.87;67.03;97156.42;1728494;81;21059;-85
2022/04/22 05:03:16;;;;;;;21.02;14.93;;;;;;;3.93;66.89;97161.55;1738133;81;21395;-85
2022/04/22 05:05:43;;;;;;;22.58;14.98;;;;;;;4.00;66.71;97151.84;1744290;81;21017;-86
2022/04/22 05:08:10;;;;;;;23.67;14.60;;;;;;;4.07;66.56;97152.17;1735155;82;20958;-86
2022/04/22 05:10:37;;;;;;;21.35;15.03;;;;;;;4.07;66.88;97161.34;1738746;82;20982;-85
2022/04/22 05:13:04;;;;;;;19.90;14.65;;;;;;;4.07;66.36;97170.06;1720295;82;20968;-85
2022/04/22 05:15:33;;;;;;;24.07;16.15;;;;;;;4.13;66.29;97166.91;1738828;82;21001;-86
2022/04/22 05:18:02;;;;;;;23.45;15.98;;;;;;;4.19;66.20;97171.61;1735970;82;20976;-82
2022/04/22 05:20:32;;;;;;;22.77;15.23;;;;;;;4.22;65.90;97170.26;1714237;82;20993;-87
2022/04/22 05:22:58;;;;;;;23.40;16.20;;;;;;;4.27;65.85;97175.88;1728980;82;21461;-86
2022/04/22 05:25:26;;;;;;;24.32;16.75;;;;;;;4.32;65.98;97160.92;1736577;82;20997;-89
2022/04/22 05:27:52;;;;;;;28.07;18.92;;;;;;;4.40;65.88;97154.22;1729600;82;21028;-87
2022/04/22 05:33:04;;;;;;;33.28;19.87;;;;;;;4.56;65.54;97143.84;1738016;82;20998;-87
2022/04/22 05:35:32;;;;;;;35.15;20.92;;;;;;;4.65;65.30;97141.48;1735658;82;21034;-88
2022/04/22 05:38:04;;;;;;;32.33;21.20;;;;;;;4.71;64.98;97134.81;1734763;82;20974;-80
2022/04/22 05:40:35;;;;;;;36.05;22.35;;;;;;;4.77;65.09;97142.15;1740990;82;21039;-78
2022/04/22 05:43:04;;;;;;;39.73;23.62;;;;;;;4.83;64.88;97148.14;1718900;81;21012;-83
2022/04/22 05:45:31;;;;;;;35.40;22.52;;;;;;;4.87;64.79;97145.84;1707015;84;21121;-81
2022/04/22 05:47:58;;;;;;;34.88;22.32;;;;;;;4.90;64.45;97135.73;1708035;84;21036;-81
2022/04/22 05:50:26;;;;;;;32.90;21.05;;;;;;;4.95;64.57;97139.16;1710274;82;21056;-81
2022/04/22 05:52:54;;;;;;;30.37;20.75;;;;;;;5.02;64.43;97117.10;1709420;83;21037;-76
2022/04/22 05:55:23;;;;;;;29.05;20.45;;;;;;;5.07;64.45;97118.77;1709240;84;21013;-80
2022/04/22 05:57:53;;;;;;;32.05;21.02;;;;;;;5.14;64.22;97119.91;1709953;84;21486;-84
2022/04/22 06:00:23;;;;;;;29.67;20.68;;;;;;;5.21;63.92;97127.65;1710955;84;21049;-82
2022/04/22 06:02:52;;;;;;;37.38;20.85;;;;;;;5.26;63.72;97134.98;1705818;83;20985;-83
2022/04/22 06:05:21;;;;;;;31.20;19.95;;;;;;;5.31;63.31;97129.64;1711297;84;21023;-82
2022/04/22 06:07:48;;;;;;;34.67;21.10;;;;;;;5.31;63.22;97130.48;1711034;84;21019;-83
2022/04/22 06:10:33;;;;;;;37.20;22.07;;;;;;;5.31;63.59;97129.64;1725038;82;21015;-85
2022/04/22 06:13:00;;;;;;;32.55;21.65;;;;;;;5.26;63.40;97138.48;1710037;84;20969;-85
2022/04/22 06:15:29;;;;;;;31.17;21.33;;;;;;;5.28;63.36;97124.00;1710789;83;21065;-78
2022/04/22 06:17:57;;;;;;;31.57;21.15;;;;;;;5.29;63.25;97130.52;1731106;83;20982;-79
2022/04/22 06:20:23;;;;;;;32.98;20.62;;;;;;;5.33;63.16;97125.20;1715004;83;21083;-79
2022/04/22 06:22:50;;;;;;;34.88;22.55;;;;;;;5.35;63.18;97135.25;1703308;84;21476;-79
2022/04/22 06:25:17;;;;;;;35.90;21.93;;;;;;;5.39;63.07;97140.82;1708956;81;21023;-82
2022/04/22 06:27:45;;;;;;;31.52;21.45;;;;;;;5.40;62.94;97143.42;1737954;81;20968;-78
2022/04/22 06:30:15;;;;;;;33.10;21.48;;;;;;;5.38;63.23;97154.43;1706406;83;21082;-77
2022/04/22 06:32:47;;;;;;;32.00;21.45;;;;;;;5.38;63.19;97150.48;1762316;81;21067;-78
2022/04/22 06:35:18;;;;;;;33.67;21.57;;;;;;;5.41;63.11;97167.48;1720738;81;21070;-79
2022/04/22 06:37:52;;;;;;;34.98;21.20;;;;;;;5.44;62.98;97167.86;1712260;83;20979;-83
2022/04/22 06:45:53;;;;;;;33.18;21.17;;;;;;;5.51;62.96;97153.70;1670375;85;21024;-79
2022/04/22 06:48:33;;;;;;;27.50;19.75;;;;;;;5.57;62.99;97149.20;1696037;84;21026;-77
2022/04/22 06:51:06;;;;;;;31.50;20.40;;;;;;;5.58;62.90;97143.91;1696409;84;21047;-75
2022/04/22 06:53:31;;;;;;;31.45;21.07;;;;;;;5.58;62.83;97135.15;1697043;84;21032;-86
2022/04/22 06:56:00;;;;;;;33.70;21.42;;;;;;;5.58;63.10;97137.78;1667652;86;21017;-82
2022/04/22 06:58:30;;;;;;;31.37;21.00;;;;;;;5.54;63.74;97146.19;1697415;84;21004;-86
2022/04/22 07:00:57;;;;;;;32.63;21.95;;;;;;;5.51;63.48;97148.44;1665388;85;20965;-86
2022/04/22 07:03:24;;;;;;;33.35;21.02;;;;;;;5.54;63.46;97136.55;1697826;84;21011;-86
2022/04/22 07:05:52;;;;;;;33.78;20.32;;;;;;;5.61;63.38;97153.48;1697487;84;21062;-85
2022/04/22 07:08:20;;;;;;;34.18;20.90;;;;;;;5.66;63.17;97150.30;1694725;85;21032;-85
2022/04/22 07:10:49;;;;;;;33.55;22.20;;;;;;;5.71;63.16;97148.86;1691873;84;21083;-86
2022/04/22 07:13:17;;;;;;;33.75;21.48;;;;;;;5.73;63.14;97138.73;1707168;84;20985;-86
2022/04/22 07:15:47;;;;;;;34.18;23.52;;;;;;;5.77;63.30;97141.70;1724760;83;21115;-86
2022/04/22 07:18:16;;;;;;;39.58;20.90;;;;;;;5.83;63.29;97155.59;1709315;84;20997;-86
2022/04/22 07:20:43;;;;;;;33.08;20.60;;;;;;;5.86;63.33;97155.53;1708988;84;21620;-86
2022/04/22 07:23:12;;;;;;;37.50;22.60;;;;;;;5.89;63.67;97158.95;1709069;84;21002;-85
2022/04/22 07:25:39;;;;;;;32.63;21.77;;;;;;;5.91;63.70;97154.53;1709738;84;21021;-85
2022/04/22 07:28:06;;;;;;;31.97;21.95;;;;;;;5.93;64.02;97151.41;1686870;84;20997;-86
2022/04/22 07:30:34;;;;;;;35.20;22.58;;;;;;;5.93;63.93;97150.09;1709450;83;21147;-85
2022/04/22 07:33:01;;;;;;;33.75;22.02;;;;;;;5.96;63.81;97162.30;1709676;84;21128;-86
2022/04/22 07:35:28;;;;;;;37.55;23.12;;;;;;;6.00;63.88;97161.77;1709105;84;21534;-86
2022/04/22 07:37:55;;;;;;;38.92;23.38;;;;;;;6.03;63.99;97155.16;1709621;84;21061;-86
2022/04/22 07:40:23;;;;;;;37.50;22.52;;;;;;;6.05;64.11;97155.53;1709495;83;21071;-86
2022/04/22 07:48:26;;;;;;;34.92;22.37;;;;;;;6.16;64.07;97167.11;1709170;84;21436;-86
2022/04/22 07:50:54;;;;;;;37.33;23.20;;;;;;;6.22;64.08;97162.12;1709144;84;21035;-87
2022/04/22 07:53:22;;;;;;;35.58;23.47;;;;;;;6.26;64.14;97158.52;1708662;84;21378;-86
2022/04/22 07:55:49;;;;;;;38.38;23.38;;;;;;;6.32;64.25;97164.08;1709014;84;21556;-86
2022/04/22 07:58:17;;;;;;;33.20;22.90;;;;;;;6.34;64.38;97159.63;1708922;84;21062;-86
2022/04/22 08:00:45;;;;;;;33.88;22.05;;;;;;;6.33;64.60;97160.53;1709252;84;21030;-86
2022/04/22 08:03:15;;;;;;;33.78;22.93;;;;;;;6.36;64.42;97155.20;1709196;84;21463;-85
2022/04/22 08:05:42;;;;;;;36.15;22.10;;;;;;;6.40;64.32;97152.88;1709205;83;21410;-85
2022/04/22 08:08:09;;;;;;;41.88;23.22;;;;;;;6.43;64.40;97151.48;1709544;84;21054;-86
2022/04/22 08:10:38;;;;;;;37.58;21.95;;;;;;;6.45;64.49;97152.30;1709412;84;21027;-85
2022/04/22 08:13:06;;;;;;;36.28;22.98;;;;;;;6.49;64.07;97154.42;1709457;84;21090;-87
2022/04/22 08:15:34;;;;;;;37.05;21.65;;;;;;;6.51;64.11;97146.02;1709468;84;21070;-86
2022/04/22 08:18:02;;;;;;;31.25;20.10;;;;;;;6.57;64.10;97135.31;1709437;83;21018;-86
2022/04/22 08:20:31;;;;;;;31.65;21.25;;;;;;;6.64;63.95;97129.43;1709481;83;21170;-85
2022/04/22 08:23:02;;;;;;;33.25;21.48;;;;;;;6.73;63.62;97146.77;1709620;83;21065;-85
2022/04/22 08:25:28;;;;;;;29.52;20.00;;;;;;;6.79;63.39;97149.66;1709160;84;21050;-85
2022/04/22 08:27:55;;;;;;;32.63;20.88;;;;;;;6.83;63.43;97154.81;1709028;84;21057;-85
2022/04/22 08:30:24;;;;;;;31.27;19.75;;;;;;;6.91;63.35;97136.59;1708862;84;21035;-85
2022/04/22 08:32:50;;;;;;;28.87;19.73;;;;;;;7.01;63.16;97119.61;1709193;83;21448;-85
2022/04/22 08:35:17;;;;;;;27.67;18.77;;;;;;;7.12;62.97;97125.89;1709213;83;21448;-85
2022/04/22 08:37:45;;;;;;;28.40;18.87;;;;;;;7.22;62.78;97120.75;1709331;84;21002;-85
2022/04/22 08:40:12;;;;;;;32.53;19.87;;;;;;;7.36;62.66;97129.55;1709087;82;21071;-85
2022/04/22 08:42:42;;;;;;;32.15;21.10;;;;;;;7.48;62.18;97122.19;1709188;84;21599;-86
2022/04/22 08:45:10;;;;;;;28.50;19.12;;;;;;;7.58;62.23;97124.94;1709377;84;21090;-85
2022/04/22 08:50:30;;;;;;;25.08;17.52;;;;;;;7.86;61.54;97117.91;1709329;84;21062;-86
2022/04/22 08:53:06;;;;;;;25.08;17.60;;;;;;;7.98;61.26;97114.01;1709027;83;21066;-85
2022/04/22 08:55:34;;;;;;;25.60;18.60;;;;;;;8.10;61.11;97121.50;1709278;84;20998;-85
2022/04/22 08:58:05;;;;;;;30.37;18.82;;;;;;;8.19;61.04;97111.95;1709226;84;20983;-85
2022/04/22 09:00:34;;;;;;;31.45;19.00;;;;;;;8.26;61.25;97119.20;1709138;84;21058;-84
2022/04/22 09:03:01;;;;;;;35.30;20.23;;;;;;;8.30;61.03;97113.36;1708985;84;21099;-85
2022/04/22 09:05:29;;;;;;;27.20;17.65;;;;;;;8.34;61.19;97104.41;1708805;84;21067;-85
2022/04/22 09:07:56;;;;;;;31.62;17.45;;;;;;;8.38;61.30;97101.23;1710549;83;20995;-86
2022/04/22 09:10:23;;;;;;;25.70;17.32;;;;;;;8.41;61.21;97091.42;1709252;84;21067;-86
2022/04/22 09:12:54;;;;;;;24.70;16.80;;;;;;;8.42;61.01;97084.34;1709319;84;21039;-85
2022/04/22 09:15:27;;;;;;;23.07;16.85;;;;;;;8.45;60.92;97077.20;1708704;84;21146;-86
2022/04/22 09:17:59;;;;;;;26.30;17.02;;;;;;;8.51;61.11;97072.61;1709567;83;21456;-87
2022/04/22 09:20:32;;;;;;;22.30;16.10;;;;;;;8.58;60.89;97063.12;1709541;84;21094;-86
2022/04/22 09:22:59;;;;;;;27.50;17.27;;;;;;;8.68;60.79;97059.66;1709558;83;20979;-84
2022/04/22 09:25:28;;;;;;;25.23;17.62;;;;;;;8.80;60.73;97049.58;1709621;84;21523;-85
2022/04/22 09:28:08;;;;;;;28.20;16.02;;;;;;;8.86;60.85;97038.77;1709441;84;21011;-84
2022/04/22 09:30:34;;;;;;;28.02;17.95;;;;;;;8.95;61.17;97032.26;1709571;84;21064;-85
2022/04/22 09:33:01;;;;;;;29.67;17.52;;;;;;;9.02;61.01;97046.98;1709303;84;21086;-85
2022/04/22 09:35:29;;;;;;;29.12;16.62;;;;;;;9.06;60.89;97058.28;1709367;84;21030;-85
2022/04/22 09:43:39;;;;;;;24.70;16.45;;;;;;;9.37;60.79;97046.05;1709530;84;21063;-86
2022/04/22 09:46:06;;;;;;;21.37;15.80;;;;;;;9.62;60.51;97049.02;1709608;84;21026;-86
2022/04/22 09:48:44;;;;;;;22.42;15.23;;;;;;;9.86;59.91;97050.25;1709619;84;21035;-86
2022/04/22 09:51:22;;;;;;;23.07;15.18;;;;;;;10.10;59.77;97046.61;1709198;84;21049;-86
2022/04/22 09:54:15;;;;;;;22.80;16.25;;;;;;;10.35;59.76;97045.09;1709668;84;20971;-86
2022/04/22 09:57:00;;;;;;;26.68;17.23;;;;;;;10.62;58.96;97031.56;1709080;84;21441;-86
2022/04/22 09:59:29;;;;;;;23.65;16.30;;;;;;;10.83;57.67;97023.55;1709500;84;21026;-86
2022/04/22 10:01:55;;;;;;;21.80;15.43;;;;;;;10.89;56.01;97021.09;1709405;84;21007;-86
2022/04/22 10:04:23;;;;;;;25.50;16.40;;;;;;;10.82;55.55;97033.77;1709513;84;20986;-83
2022/04/22 10:06:51;;;;;;;22.65;15.98;;;;;;;10.84;55.91;97031.92;1709436;84;21011;-84
2022/04/22 10:09:20;;;;;;;19.60;15.38;;;;;;;10.80;55.49;97026.36;1709175;84;21071;-85
2022/04/22 10:11:47;;;;;;;25.17;15.88;;;;;;;10.79;55.01;97017.54;1708959;84;21022;-84
2022/04/22 10:14:22;;;;;;;22.98;16.15;;;;;;;10.78;54.73;97016.28;1709104;84;21047;-84
2022/04/22 10:16:50;;;;;;;21.62;16.32;;;;;;;10.75;54.80;97013.79;1708701;84;21453;-85
2022/04/22 10:19:17;;;;;;;24.10;16.02;;;;;;;10.78;55.50;97004.35;1710626;84;21027;-85
2022/04/22 10:21:46;;;;;;;21.37;16.65;;;;;;;10.89;55.33;97011.36;1708860;84;21038;-85
2022/04/22 10:24:14;;;;;;;22.37;15.60;;;;;;;11.01;54.96;97012.55;1709265;84;21058;-85
2022/04/22 10:26:42;;;;;;;21.45;15.60;;;;;;;11.12;55.03;97005.41;1708898;84;21022;-84
2022/04/22 10:29:10;;;;;;;22.70;16.32;;;;;;;11.20;54.79;96992.66;1709301;84;21082;-84
2022/04/22 10:31:39;;;;;;;22.02;15.00;;;;;;;11.25;53.96;96981.81;1709577;84;21003;-83
2022/04/22 10:34:09;;;;;;;21.25;15.80;;;;;;;11.41;53.92;96971.31;1709373;84;21086;-86
2022/04/22 10:36:38;;;;;;;17.85;13.90;;;;;;;11.65;54.24;96971.48;1709645;83;21019;-85
2022/04/22 10:39:05;;;;;;;17.12;13.68;;;;;;;12.04;54.07;96981.00;1709389;84;20984;-84
2022/04/22 10:41:46;;;;;;;20.48;13.85;;;;;;;12.39;52.58;96979.66;1709339;82;21524;-86
2022/04/22 10:47:14;;;;;;;16.02;11.83;;;;;;;13.60;49.81;96971.28;1719460;82;21027;-85
2022/04/22 10:49:46;;;;;;;15.28;12.07;;;;;;;14.63;48.89;96952.69;1740094;82;21291;-84
2022/04/22 10:52:17;;;;;;;13.58;11.33;;;;;;;15.52;44.06;96956.84;1740575;82;21039;-85
2022/04/22 10:55:02;;;;;;;13.58;10.78;;;;;;;16.18;47.16;96952.89;1741028;82;21055;-85
2022/04/22 10:57:35;;;;;;;14.85;10.43;;;;;;;16.90;43.78;96950.55;1730812;82;21031;-83
2022/04/22 11:00:17;;;;;;;11.57;10.23;;;;;;;17.58;42.13;96940.75;1740967;82;21077;-83
2022/04/22 11:02:46;;;;;;;10.82;9.20;;;;;;;18.16;41.94;96933.75;1740974;82;21023;-83
2022/04/22 11:05:32;;;;;;;10.55;9.05;;;;;;;18.63;38.15;96918.06;1741186;82;21103;-84
2022/04/22 11:08:00;;;;;;;10.70;8.93;;;;;;;18.74;36.80;96915.36;1740262;82;21069;-85
2022/04/22 11:10:52;;;;;;;9.68;8.70;;;;;;;19.32;38.61;96898.19;1740859;82;21087;-84
2022/04/22 11:13:42;;;;;;;10.50;9.40;;;;;;;19.73;35.54;96900.20;1741163;82;21054;-85
2022/04/22 11:16:34;;;;;;;9.95;8.90;;;;;;;20.33;36.65;96897.39;1739833;82;21040;-84
2022/04/22 11:19:19;;;;;;;11.03;8.03;;;;;;;20.40;35.19;96887.33;1759675;81;21417;-84
2022/04/22 11:21:52;;;;;;;8.63;7.53;;;;;;;20.55;35.57;96891.00;1740481;82;21063;-84
2022/04/22 11:24:32;;;;;;;8.50;7.55;;;;;;;20.76;35.27;96884.18;1740187;82;21448;-85
2022/04/22 11:27:14;;;;;;;8.80;7.90;;;;;;;20.57;34.07;96884.98;1740309;82;20987;-83
2022/04/22 11:29:47;;;;;;;10.82;8.83;;;;;;;20.83;33.77;96877.27;1740159;82;21020;-83
2022/04/22 11:32:23;;;;;;;12.10;8.33;;;;;;;21.40;34.54;96873.61;1738954;82;21050;-84
2022/04/22 11:35:14;;;;;;;9.88;7.80;;;;;;;21.63;34.51;96875.03;1739432;82;21064;-84
2022/04/22 11:37:42;;;;;;;10.53;8.43;;;;;;;22.04;34.15;96880.73;1761614;81;21494;-85
2022/04/22 11:40:10;;;;;;;10.10;7.75;;;;;;;22.37;32.59;96860.98;1740317;82;21031;-84
2022/04/22 11:42:43;;;;;;;8.33;7.33;;;;;;;22.49;32.49;96869.73;1717228;82;21116;-83
2022/04/22 11:45:13;;;;;;;11.33;7.37;;;;;;;22.63;31.72;96869.77;1740325;82;21023;-83
2022/04/22 11:47:41;;;;;;;8.63;7.72;;;;;;;22.72;31.98;96861.78;1739218;82;20995;-84
2022/04/22 11:50:20;;;;;;;11.68;8.23;;;;;;;22.50;31.67;96851.70;1740350;82;21016;-83
2022/04/22 11:52:56;;;;;;;9.03;8.13;;;;;;;22.52;31.03;96846.51;1740692;82;21039;-84
2022/04/22 11:55:23;;;;;;;9.50;8.53;;;;;;;22.53;31.93;96840.13;1740357;82;21032;-84
2022/04/22 11:57:49;;;;;;;10.23;7.30;;;;;;;22.55;31.27;96833.23;1740598;82;21063;-84
2022/04/22 12:05:51;;;;;;;10.75;7.62;;;;;;;22.83;32.66;96813.47;1740233;82;21051;-84
2022/04/22 12:08:18;;;;;;;8.60;7.72;;;;;;;23.07;32.29;96804.75;1740053;82;21393;-84
2022/04/22 12:10:50;;;;;;;10.38;7.67;;;;;;;23.36;31.08;96793.38;1739868;82;21039;-83
2022/04/22 12:13:18;;;;;;;10.23;7.35;;;;;;;23.40;31.92;96796.11;1740647;82;21031;-84
2022/04/22 12:15:48;;;;;;;9.80;7.40;;;;;;;23.31;31.30;96797.39;1739996;82;21012;-83
2022/04/22 12:18:33;;;;;;;8.25;7.37;;;;;;;23.01;31.11;96778.35;1739322;82;21066;-84
2022/04/22 12:21:01;;;;;;;9.03;7.80;;;;;;;23.03;32.22;96767.73;1739591;82;21078;-84
2022/04/22 12:23:40;;;;;;;9.33;7.58;;;;;;;23.28;32.67;96773.36;1716992;82;21464;-84
2022/04/22 12:26:22;;;;;;;8.50;7.17;;;;;;;23.42;32.12;96769.79;1739868;82;21039;-83